sensor_id;sensor_type;location;lat;lon;timestamp;temperature;humidity
3504;DHT22;1766;53.490;10.174;2022-08-04T00:01:45;28.60;47.80
3504;DHT22;1766;53.490;10.174;2022-08-04T00:03:56;28.60;47.90
3504;DHT22;1766;53.490;10.174;2022-08-04T00:06:06;28.60;47.90
3504;DHT22;1766;53.490;10.174;2022-08-04T00:08:19;28.60;47.90
3504;DHT22;1766;53.490;10.174;2022-08-04T00:10:28;28.60;48.10
3504;DHT22;1766;53.490;10.174;2022-08-04T00:12:36;28.60;48.00
3504;DHT22;1766;53.490;10.174;2022-08-04T00:14:47;28.60;48.00
3504;DHT22;1766;53.490;10.174;2022-08-04T00:16:50;28.60;48.00
3504;DHT22;1766;53.490;10.174;2022-08-04T00:18:57;28.60;48.10
3504;DHT22;1766;53.490;10.174;2022-08-04T00:21:15;28.60;48.20
3504;DHT22;1766;53.490;10.174;2022-08-04T00:23:20;28.60;48.20
3504;DHT22;1766;53.490;10.174;2022-08-04T00:25:23;28.50;48.20
3504;DHT22;1766;53.490;10.174;2022-08-04T00:27:28;28.50;48.20
3504;DHT22;1766;53.490;10.174;2022-08-04T00:29:30;28.50;48.40
3504;DHT22;1766;53.490;10.174;2022-08-04T00:31:33;28.60;48.40
3504;DHT22;1766;53.490;10.174;2022-08-04T00:33:36;28.40;48.30
3504;DHT22;1766;53.490;10.174;2022-08-04T00:35:39;28.40;48.50
3504;DHT22;1766;53.490;10.174;2022-08-04T00:37:43;28.40;48.50
3504;DHT22;1766;53.490;10.174;2022-08-04T00:39:46;28.30;48.60
3504;DHT22;1766;53.490;10.174;2022-08-04T00:42:10;28.30;48.70
3504;DHT22;1766;53.490;10.174;2022-08-04T00:44:35;28.20;48.70
3504;DHT22;1766;53.490;10.174;2022-08-04T00:46:53;28.30;48.70
3504;DHT22;1766;53.490;10.174;2022-08-04T00:49:18;28.30;48.80
3504;DHT22;1766;53.490;10.174;2022-08-04T00:51:46;28.20;48.90
3504;DHT22;1766;53.490;10.174;2022-08-04T00:54:00;28.20;48.90
3504;DHT22;1766;53.490;10.174;2022-08-04T00:56:21;28.10;49.00
3504;DHT22;1766;53.490;10.174;2022-08-04T00:58:46;28.00;49.20
3504;DHT22;1766;53.490;10.174;2022-08-04T01:01:00;28.00;49.20
3504;DHT22;1766;53.490;10.174;2022-08-04T01:03:08;27.90;49.30
3504;DHT22;1766;53.490;10.174;2022-08-04T01:05:20;28.00;49.40
3504;DHT22;1766;53.490;10.174;2022-08-04T01:07:41;28.00;49.50
3504;DHT22;1766;53.490;10.174;2022-08-04T01:09:56;28.00;49.50
3504;DHT22;1766;53.490;10.174;2022-08-04T01:12:14;28.00;49.60
3504;DHT22;1766;53.490;10.174;2022-08-04T01:14:42;28.00;49.80
3504;DHT22;1766;53.490;10.174;2022-08-04T01:16:52;28.00;49.80
3504;DHT22;1766;53.490;10.174;2022-08-04T01:19:00;28.00;49.80
3504;DHT22;1766;53.490;10.174;2022-08-04T01:21:21;28.00;50.00
3504;DHT22;1766;53.490;10.174;2022-08-04T01:23:54;27.90;50.00
3504;DHT22;1766;53.490;10.174;2022-08-04T01:31:12;27.90;50.00
3504;DHT22;1766;53.490;10.174;2022-08-04T01:33:21;28.00;50.10
3504;DHT22;1766;53.490;10.174;2022-08-04T01:35:28;28.00;50.10
3504;DHT22;1766;53.490;10.174;2022-08-04T01:37:46;27.90;50.10
3504;DHT22;1766;53.490;10.174;2022-08-04T01:39:59;27.90;50.20
3504;DHT22;1766;53.490;10.174;2022-08-04T01:42:03;27.90;50.30
3504;DHT22;1766;53.490;10.174;2022-08-04T01:44:09;27.80;50.20
3504;DHT22;1766;53.490;10.174;2022-08-04T01:46:13;28.10;50.50
3504;DHT22;1766;53.490;10.174;2022-08-04T01:48:17;27.80;50.40
3504;DHT22;1766;53.490;10.174;2022-08-04T01:50:24;27.90;50.50
3504;DHT22;1766;53.490;10.174;2022-08-04T01:52:28;27.90;50.40
3504;DHT22;1766;53.490;10.174;2022-08-04T01:54:31;27.90;50.50
3504;DHT22;1766;53.490;10.174;2022-08-04T01:56:33;27.80;50.50
3504;DHT22;1766;53.490;10.174;2022-08-04T01:58:37;27.80;50.40
3504;DHT22;1766;53.490;10.174;2022-08-04T02:00:45;27.80;50.60
3504;DHT22;1766;53.490;10.174;2022-08-04T02:02:52;27.70;50.70
3504;DHT22;1766;53.490;10.174;2022-08-04T02:04:54;27.80;50.80
3504;DHT22;1766;53.490;10.174;2022-08-04T02:07:03;27.70;50.60
3504;DHT22;1766;53.490;10.174;2022-08-04T02:09:21;27.70;50.90
3504;DHT22;1766;53.490;10.174;2022-08-04T02:11:24;27.70;50.90
3504;DHT22;1766;53.490;10.174;2022-08-04T02:13:30;27.80;50.80
3504;DHT22;1766;53.490;10.174;2022-08-04T02:15:43;27.80;51.00
3504;DHT22;1766;53.490;10.174;2022-08-04T02:17:58;27.70;50.90
3504;DHT22;1766;53.490;10.174;2022-08-04T02:20:06;27.80;51.00
3504;DHT22;1766;53.490;10.174;2022-08-04T02:22:16;27.80;50.90
3504;DHT22;1766;53.490;10.174;2022-08-04T02:24:20;27.80;50.90
3504;DHT22;1766;53.490;10.174;2022-08-04T02:26:28;27.80;51.00
3504;DHT22;1766;53.490;10.174;2022-08-04T02:28:35;27.80;51.00
3504;DHT22;1766;53.490;10.174;2022-08-04T02:30:46;27.70;50.90
3504;DHT22;1766;53.490;10.174;2022-08-04T02:33:02;27.70;51.00
3504;DHT22;1766;53.490;10.174;2022-08-04T02:35:07;27.70;51.00
3504;DHT22;1766;53.490;10.174;2022-08-04T02:37:10;27.60;51.00
3504;DHT22;1766;53.490;10.174;2022-08-04T02:39:18;27.50;51.10
3504;DHT22;1766;53.490;10.174;2022-08-04T02:41:22;27.50;51.30
3504;DHT22;1766;53.490;10.174;2022-08-04T02:43:27;27.50;51.30
3504;DHT22;1766;53.490;10.174;2022-08-04T02:45:31;27.50;51.40
3504;DHT22;1766;53.490;10.174;2022-08-04T02:47:38;27.50;51.40
3504;DHT22;1766;53.490;10.174;2022-08-04T02:49:41;27.50;51.40
3504;DHT22;1766;53.490;10.174;2022-08-04T02:51:50;27.50;51.40
3504;DHT22;1766;53.490;10.174;2022-08-04T02:53:54;27.50;51.50
3504;DHT22;1766;53.490;10.174;2022-08-04T02:55:57;27.50;51.60
3504;DHT22;1766;53.490;10.174;2022-08-04T02:58:03;27.40;51.50
3504;DHT22;1766;53.490;10.174;2022-08-04T03:00:08;27.40;51.70
3504;DHT22;1766;53.490;10.174;2022-08-04T03:02:14;27.30;51.70
3504;DHT22;1766;53.490;10.174;2022-08-04T03:04:31;27.30;51.80
3504;DHT22;1766;53.490;10.174;2022-08-04T03:06:58;27.20;51.90
3504;DHT22;1766;53.490;10.174;2022-08-04T03:09:42;27.20;52.00
3504;DHT22;1766;53.490;10.174;2022-08-04T03:12:13;27.20;52.10
3504;DHT22;1766;53.490;10.174;2022-08-04T03:14:49;27.10;52.00
3504;DHT22;1766;53.490;10.174;2022-08-04T03:20:04;27.10;52.20
3504;DHT22;1766;53.490;10.174;2022-08-04T03:22:33;27.10;52.10
3504;DHT22;1766;53.490;10.174;2022-08-04T03:25:12;27.00;52.30
3504;DHT22;1766;53.490;10.174;2022-08-04T03:27:41;27.00;52.50
3504;DHT22;1766;53.490;10.174;2022-08-04T03:30:10;26.90;52.40
3504;DHT22;1766;53.490;10.174;2022-08-04T03:35:14;27.00;52.60
3504;DHT22;1766;53.490;10.174;2022-08-04T03:37:33;26.90;52.50
3504;DHT22;1766;53.490;10.174;2022-08-04T03:42:44;26.80;52.80
3504;DHT22;1766;53.490;10.174;2022-08-04T03:47:47;26.80;53.00
3504;DHT22;1766;53.490;10.174;2022-08-04T03:50:17;26.80;53.10
3504;DHT22;1766;53.490;10.174;2022-08-04T03:52:42;26.80;53.30
3504;DHT22;1766;53.490;10.174;2022-08-04T03:55:33;26.80;53.40
3504;DHT22;1766;53.490;10.174;2022-08-04T03:57:55;26.70;53.40
3504;DHT22;1766;53.490;10.174;2022-08-04T04:00:13;26.80;53.50
3504;DHT22;1766;53.490;10.174;2022-08-04T04:02:38;26.80;53.40
3504;DHT22;1766;53.490;10.174;2022-08-04T04:05:07;26.80;53.50
3504;DHT22;1766;53.490;10.174;2022-08-04T04:07:43;26.80;53.40
3504;DHT22;1766;53.490;10.174;2022-08-04T04:10:16;26.70;53.50
3504;DHT22;1766;53.490;10.174;2022-08-04T04:12:38;26.80;53.50
3504;DHT22;1766;53.490;10.174;2022-08-04T04:15:07;26.80;53.70
3504;DHT22;1766;53.490;10.174;2022-08-04T04:17:34;26.90;53.60
3504;DHT22;1766;53.490;10.174;2022-08-04T04:20:05;26.90;53.60
3504;DHT22;1766;53.490;10.174;2022-08-04T04:22:24;26.90;53.50
3504;DHT22;1766;53.490;10.174;2022-08-04T04:24:48;26.90;53.50
3504;DHT22;1766;53.490;10.174;2022-08-04T04:27:02;26.90;53.70
3504;DHT22;1766;53.490;10.174;2022-08-04T04:29:21;27.00;53.70
3504;DHT22;1766;53.490;10.174;2022-08-04T04:31:37;26.90;53.70
3504;DHT22;1766;53.490;10.174;2022-08-04T04:33:54;26.90;53.70
3504;DHT22;1766;53.490;10.174;2022-08-04T04:36:15;27.00;53.80
3504;DHT22;1766;53.490;10.174;2022-08-04T04:38:38;27.00;53.80
3504;DHT22;1766;53.490;10.174;2022-08-04T04:40:52;26.50;53.70
3504;DHT22;1766;53.490;10.174;2022-08-04T04:43:12;27.00;53.90
3504;DHT22;1766;53.490;10.174;2022-08-04T04:45:29;27.10;53.80
3504;DHT22;1766;53.490;10.174;2022-08-04T04:47:44;27.10;53.70
3504;DHT22;1766;53.490;10.174;2022-08-04T04:49:58;27.10;53.70
3504;DHT22;1766;53.490;10.174;2022-08-04T04:52:11;27.10;53.60
3504;DHT22;1766;53.490;10.174;2022-08-04T04:54:23;27.10;53.70
3504;DHT22;1766;53.490;10.174;2022-08-04T04:56:38;27.80;54.30
3504;DHT22;1766;53.490;10.174;2022-08-04T04:58:42;27.10;53.90
3504;DHT22;1766;53.490;10.174;2022-08-04T05:03:38;27.10;54.00
3504;DHT22;1766;53.490;10.174;2022-08-04T05:05:59;27.20;53.90
3504;DHT22;1766;53.490;10.174;2022-08-04T05:08:27;27.20;54.00
3504;DHT22;1766;53.490;10.174;2022-08-04T05:10:55;27.20;54.00
3504;DHT22;1766;53.490;10.174;2022-08-04T05:13:18;27.40;54.00
3504;DHT22;1766;53.490;10.174;2022-08-04T05:15:33;27.30;54.00
3504;DHT22;1766;53.490;10.174;2022-08-04T05:17:39;27.40;54.00
3504;DHT22;1766;53.490;10.174;2022-08-04T05:19:54;27.50;54.10
3504;DHT22;1766;53.490;10.174;2022-08-04T05:22:03;27.50;54.00
3504;DHT22;1766;53.490;10.174;2022-08-04T05:24:10;27.60;54.10
3504;DHT22;1766;53.490;10.174;2022-08-04T05:26:16;27.70;54.00
3504;DHT22;1766;53.490;10.174;2022-08-04T05:28:23;27.70;53.80
3504;DHT22;1766;53.490;10.174;2022-08-04T05:30:27;27.80;54.30
3504;DHT22;1766;53.490;10.174;2022-08-04T05:32:37;27.90;53.60
3504;DHT22;1766;53.490;10.174;2022-08-04T05:34:48;28.00;53.50
3504;DHT22;1766;53.490;10.174;2022-08-04T05:36:58;28.00;53.40
3504;DHT22;1766;53.490;10.174;2022-08-04T05:39:03;28.10;53.30
3504;DHT22;1766;53.490;10.174;2022-08-04T05:41:09;28.20;53.70
3504;DHT22;1766;53.490;10.174;2022-08-04T05:43:11;28.30;53.20
3504;DHT22;1766;53.490;10.174;2022-08-04T05:45:14;28.40;53.10
3504;DHT22;1766;53.490;10.174;2022-08-04T05:47:17;28.50;53.00
3504;DHT22;1766;53.490;10.174;2022-08-04T05:49:22;28.60;52.70
3504;DHT22;1766;53.490;10.174;2022-08-04T05:51:26;28.70;52.60
3504;DHT22;1766;53.490;10.174;2022-08-04T05:53:31;28.70;52.40
3504;DHT22;1766;53.490;10.174;2022-08-04T05:55:33;28.80;52.80
3504;DHT22;1766;53.490;10.174;2022-08-04T05:57:38;28.90;52.10
3504;DHT22;1766;53.490;10.174;2022-08-04T05:59:41;28.90;52.00
3504;DHT22;1766;53.490;10.174;2022-08-04T06:01:46;29.00;51.90
3504;DHT22;1766;53.490;10.174;2022-08-04T06:03:49;29.10;51.90
3504;DHT22;1766;53.490;10.174;2022-08-04T06:05:51;29.10;51.80
3504;DHT22;1766;53.490;10.174;2022-08-04T06:07:53;29.20;51.80
3504;DHT22;1766;53.490;10.174;2022-08-04T06:09:55;29.30;51.60
3504;DHT22;1766;53.490;10.174;2022-08-04T06:11:59;29.40;51.50
3504;DHT22;1766;53.490;10.174;2022-08-04T06:14:07;29.50;51.50
3504;DHT22;1766;53.490;10.174;2022-08-04T06:16:12;29.60;51.40
3504;DHT22;1766;53.490;10.174;2022-08-04T06:18:16;29.70;51.20
3504;DHT22;1766;53.490;10.174;2022-08-04T06:20:19;29.70;51.00
3504;DHT22;1766;53.490;10.174;2022-08-04T06:22:23;29.80;51.00
3504;DHT22;1766;53.490;10.174;2022-08-04T06:24:28;29.90;50.90
3504;DHT22;1766;53.490;10.174;2022-08-04T06:26:32;29.90;50.80
3504;DHT22;1766;53.490;10.174;2022-08-04T06:28:35;29.90;50.80
3504;DHT22;1766;53.490;10.174;2022-08-04T06:30:39;30.00;50.90
3504;DHT22;1766;53.490;10.174;2022-08-04T06:32:42;30.00;50.80
3504;DHT22;1766;53.490;10.174;2022-08-04T06:34:50;30.10;50.80
3504;DHT22;1766;53.490;10.174;2022-08-04T06:36:53;30.10;50.70
3504;DHT22;1766;53.490;10.174;2022-08-04T06:38:57;30.20;50.60
3504;DHT22;1766;53.490;10.174;2022-08-04T06:41:00;30.20;50.50
3504;DHT22;1766;53.490;10.174;2022-08-04T06:43:05;30.20;50.60
3504;DHT22;1766;53.490;10.174;2022-08-04T06:45:09;30.30;50.10
3504;DHT22;1766;53.490;10.174;2022-08-04T06:47:13;30.30;49.90
3504;DHT22;1766;53.490;10.174;2022-08-04T06:49:18;30.30;49.80
3504;DHT22;1766;53.490;10.174;2022-08-04T06:51:22;30.40;49.60
3504;DHT22;1766;53.490;10.174;2022-08-04T06:53:26;30.50;49.60
3504;DHT22;1766;53.490;10.174;2022-08-04T06:55:28;30.50;49.40
3504;DHT22;1766;53.490;10.174;2022-08-04T06:57:32;30.60;49.30
3504;DHT22;1766;53.490;10.174;2022-08-04T06:59:35;30.70;49.10
3504;DHT22;1766;53.490;10.174;2022-08-04T07:01:37;30.80;48.90
3504;DHT22;1766;53.490;10.174;2022-08-04T07:03:41;30.80;48.80
3504;DHT22;1766;53.490;10.174;2022-08-04T07:05:46;30.80;48.60
3504;DHT22;1766;53.490;10.174;2022-08-04T07:07:48;30.90;48.50
3504;DHT22;1766;53.490;10.174;2022-08-04T07:09:50;30.90;48.30
3504;DHT22;1766;53.490;10.174;2022-08-04T07:11:53;31.00;48.20
3504;DHT22;1766;53.490;10.174;2022-08-04T07:13:56;31.10;48.10
3504;DHT22;1766;53.490;10.174;2022-08-04T07:15:59;31.10;48.00
3504;DHT22;1766;53.490;10.174;2022-08-04T07:18:01;31.20;47.90
3504;DHT22;1766;53.490;10.174;2022-08-04T07:20:06;31.30;47.70
3504;DHT22;1766;53.490;10.174;2022-08-04T07:22:09;31.30;47.70
3504;DHT22;1766;53.490;10.174;2022-08-04T07:24:11;31.40;47.50
3504;DHT22;1766;53.490;10.174;2022-08-04T07:26:13;31.50;47.30
3504;DHT22;1766;53.490;10.174;2022-08-04T07:28:16;31.60;47.20
3504;DHT22;1766;53.490;10.174;2022-08-04T07:30:19;31.60;47.00
3504;DHT22;1766;53.490;10.174;2022-08-04T07:32:21;31.70;46.80
3504;DHT22;1766;53.490;10.174;2022-08-04T07:34:24;31.80;46.70
3504;DHT22;1766;53.490;10.174;2022-08-04T07:36:31;31.80;46.30
3504;DHT22;1766;53.490;10.174;2022-08-04T07:38:40;32.00;45.90
3504;DHT22;1766;53.490;10.174;2022-08-04T07:40:43;32.00;45.70
3504;DHT22;1766;53.490;10.174;2022-08-04T07:42:46;32.10;45.80
3504;DHT22;1766;53.490;10.174;2022-08-04T07:44:48;32.20;45.30
3504;DHT22;1766;53.490;10.174;2022-08-04T07:46:50;32.20;45.20
3504;DHT22;1766;53.490;10.174;2022-08-04T07:48:53;32.30;45.10
3504;DHT22;1766;53.490;10.174;2022-08-04T07:50:55;32.30;44.70
3504;DHT22;1766;53.490;10.174;2022-08-04T07:52:58;32.40;44.60
3504;DHT22;1766;53.490;10.174;2022-08-04T07:55:01;32.40;44.50
3504;DHT22;1766;53.490;10.174;2022-08-04T07:57:04;32.50;44.40
3504;DHT22;1766;53.490;10.174;2022-08-04T07:59:06;32.60;44.20
3504;DHT22;1766;53.490;10.174;2022-08-04T08:01:08;32.70;44.20
3504;DHT22;1766;53.490;10.174;2022-08-04T08:03:11;32.80;44.00
3504;DHT22;1766;53.490;10.174;2022-08-04T08:05:15;32.80;43.90
3504;DHT22;1766;53.490;10.174;2022-08-04T08:07:19;32.90;43.80
3504;DHT22;1766;53.490;10.174;2022-08-04T08:09:23;33.00;43.70
3504;DHT22;1766;53.490;10.174;2022-08-04T08:11:25;33.10;43.60
3504;DHT22;1766;53.490;10.174;2022-08-04T08:13:27;33.10;43.40
3504;DHT22;1766;53.490;10.174;2022-08-04T08:15:30;33.20;43.40
3504;DHT22;1766;53.490;10.174;2022-08-04T08:17:32;33.30;43.30
3504;DHT22;1766;53.490;10.174;2022-08-04T08:19:35;33.40;43.20
3504;DHT22;1766;53.490;10.174;2022-08-04T08:21:38;33.40;43.00
3504;DHT22;1766;53.490;10.174;2022-08-04T08:23:40;33.60;43.10
3504;DHT22;1766;53.490;10.174;2022-08-04T08:25:44;33.60;42.70
3504;DHT22;1766;53.490;10.174;2022-08-04T08:27:46;33.70;42.50
3504;DHT22;1766;53.490;10.174;2022-08-04T08:29:48;33.70;42.30
3504;DHT22;1766;53.490;10.174;2022-08-04T08:31:50;33.80;42.00
3504;DHT22;1766;53.490;10.174;2022-08-04T08:33:52;33.90;41.70
3504;DHT22;1766;53.490;10.174;2022-08-04T08:36:00;34.00;41.30
3504;DHT22;1766;53.490;10.174;2022-08-04T08:38:05;34.10;41.00
3504;DHT22;1766;53.490;10.174;2022-08-04T08:40:28;34.20;40.70
3504;DHT22;1766;53.490;10.174;2022-08-04T08:42:46;34.20;40.40
3504;DHT22;1766;53.490;10.174;2022-08-04T08:47:42;34.60;39.60
3504;DHT22;1766;53.490;10.174;2022-08-04T08:52:48;34.80;38.90
3504;DHT22;1766;53.490;10.174;2022-08-04T08:55:12;34.90;38.80
3504;DHT22;1766;53.490;10.174;2022-08-04T08:57:36;35.10;38.60
3504;DHT22;1766;53.490;10.174;2022-08-04T08:59:52;35.10;38.10
3504;DHT22;1766;53.490;10.174;2022-08-04T09:02:18;35.30;37.90
3504;DHT22;1766;53.490;10.174;2022-08-04T09:04:53;35.30;37.60
3504;DHT22;1766;53.490;10.174;2022-08-04T09:07:14;35.40;37.40
3504;DHT22;1766;53.490;10.174;2022-08-04T09:09:39;35.50;37.10
3504;DHT22;1766;53.490;10.174;2022-08-04T09:11:56;35.50;36.90
3504;DHT22;1766;53.490;10.174;2022-08-04T09:14:09;35.60;36.60
3504;DHT22;1766;53.490;10.174;2022-08-04T09:16:21;35.70;36.50
3504;DHT22;1766;53.490;10.174;2022-08-04T09:18:36;35.80;36.40
3504;DHT22;1766;53.490;10.174;2022-08-04T09:20:46;35.80;36.30
3504;DHT22;1766;53.490;10.174;2022-08-04T09:22:53;35.90;36.00
3504;DHT22;1766;53.490;10.174;2022-08-04T09:25:10;35.90;35.50
3504;DHT22;1766;53.490;10.174;2022-08-04T09:27:18;36.10;35.00
3504;DHT22;1766;53.490;10.174;2022-08-04T09:29:35;36.10;34.80
3504;DHT22;1766;53.490;10.174;2022-08-04T09:31:45;36.10;34.40
3504;DHT22;1766;53.490;10.174;2022-08-04T09:34:00;36.30;34.20
3504;DHT22;1766;53.490;10.174;2022-08-04T09:36:14;36.30;34.00
3504;DHT22;1766;53.490;10.174;2022-08-04T09:38:32;36.40;33.70
3504;DHT22;1766;53.490;10.174;2022-08-04T09:40:47;36.50;33.60
3504;DHT22;1766;53.490;10.174;2022-08-04T09:42:57;36.50;33.50
3504;DHT22;1766;53.490;10.174;2022-08-04T09:45:09;36.60;33.30
3504;DHT22;1766;53.490;10.174;2022-08-04T09:47:19;36.70;33.00
3504;DHT22;1766;53.490;10.174;2022-08-04T09:49:30;36.70;32.70
3504;DHT22;1766;53.490;10.174;2022-08-04T09:51:44;36.80;32.60
3504;DHT22;1766;53.490;10.174;2022-08-04T09:53:56;36.90;32.70
3504;DHT22;1766;53.490;10.174;2022-08-04T09:56:08;37.00;32.60
3504;DHT22;1766;53.490;10.174;2022-08-04T09:58:16;37.00;32.40
3504;DHT22;1766;53.490;10.174;2022-08-04T10:00:33;37.10;32.40
3504;DHT22;1766;53.490;10.174;2022-08-04T10:02:43;37.20;32.00
3504;DHT22;1766;53.490;10.174;2022-08-04T10:04:52;37.30;31.40
3504;DHT22;1766;53.490;10.174;2022-08-04T10:07:08;37.30;31.00
3504;DHT22;1766;53.490;10.174;2022-08-04T10:09:27;37.40;30.80
3504;DHT22;1766;53.490;10.174;2022-08-04T10:11:45;37.50;30.00
3504;DHT22;1766;53.490;10.174;2022-08-04T10:13:59;37.60;29.70
3504;DHT22;1766;53.490;10.174;2022-08-04T10:16:22;37.70;29.50
3504;DHT22;1766;53.490;10.174;2022-08-04T10:18:42;37.80;29.20
3504;DHT22;1766;53.490;10.174;2022-08-04T10:21:00;37.90;29.00
3504;DHT22;1766;53.490;10.174;2022-08-04T10:23:11;38.10;28.90
3504;DHT22;1766;53.490;10.174;2022-08-04T10:25:24;38.30;28.70
3504;DHT22;1766;53.490;10.174;2022-08-04T10:27:35;38.50;28.40
3504;DHT22;1766;53.490;10.174;2022-08-04T10:29:42;38.70;28.10
3504;DHT22;1766;53.490;10.174;2022-08-04T10:31:53;38.80;28.10
3504;DHT22;1766;53.490;10.174;2022-08-04T10:34:00;39.00;27.90
3504;DHT22;1766;53.490;10.174;2022-08-04T10:36:08;39.10;27.60
3504;DHT22;1766;53.490;10.174;2022-08-04T10:38:16;39.10;27.30
3504;DHT22;1766;53.490;10.174;2022-08-04T10:40:26;39.10;27.30
3504;DHT22;1766;53.490;10.174;2022-08-04T10:42:56;39.10;27.00
3504;DHT22;1766;53.490;10.174;2022-08-04T10:45:07;39.10;27.00
3504;DHT22;1766;53.490;10.174;2022-08-04T10:47:16;39.10;27.30
3504;DHT22;1766;53.490;10.174;2022-08-04T10:49:22;39.20;27.10
3504;DHT22;1766;53.490;10.174;2022-08-04T10:51:34;39.30;26.70
3504;DHT22;1766;53.490;10.174;2022-08-04T10:53:39;39.40;26.40
3504;DHT22;1766;53.490;10.174;2022-08-04T10:55:47;39.50;26.50
3504;DHT22;1766;53.490;10.174;2022-08-04T10:57:54;39.50;26.20
3504;DHT22;1766;53.490;10.174;2022-08-04T11:00:02;39.50;26.00
3504;DHT22;1766;53.490;10.174;2022-08-04T11:02:16;39.70;25.80
3504;DHT22;1766;53.490;10.174;2022-08-04T11:04:33;39.70;25.70
3504;DHT22;1766;53.490;10.174;2022-08-04T11:06:41;39.70;25.70
3504;DHT22;1766;53.490;10.174;2022-08-04T11:08:46;39.90;26.10
3504;DHT22;1766;53.490;10.174;2022-08-04T11:10:59;39.90;26.10
3504;DHT22;1766;53.490;10.174;2022-08-04T11:13:07;40.00;26.00
3504;DHT22;1766;53.490;10.174;2022-08-04T11:15:17;40.10;25.90
3504;DHT22;1766;53.490;10.174;2022-08-04T11:17:27;40.20;25.80
3504;DHT22;1766;53.490;10.174;2022-08-04T11:19:35;40.30;25.80
3504;DHT22;1766;53.490;10.174;2022-08-04T11:21:44;40.50;26.00
3504;DHT22;1766;53.490;10.174;2022-08-04T11:23:55;40.70;25.70
3504;DHT22;1766;53.490;10.174;2022-08-04T11:26:07;40.70;25.40
3504;DHT22;1766;53.490;10.174;2022-08-04T11:28:23;40.80;25.10
3504;DHT22;1766;53.490;10.174;2022-08-04T11:30:33;40.80;25.10
3504;DHT22;1766;53.490;10.174;2022-08-04T11:32:44;41.00;25.10
3504;DHT22;1766;53.490;10.174;2022-08-04T11:34:52;41.00;25.20
3504;DHT22;1766;53.490;10.174;2022-08-04T11:37:02;41.20;25.00
3504;DHT22;1766;53.490;10.174;2022-08-04T11:39:14;41.40;25.00
3504;DHT22;1766;53.490;10.174;2022-08-04T11:41:23;41.50;24.90
3504;DHT22;1766;53.490;10.174;2022-08-04T11:43:35;41.70;25.00
3504;DHT22;1766;53.490;10.174;2022-08-04T11:45:49;41.80;24.80
3504;DHT22;1766;53.490;10.174;2022-08-04T11:47:57;42.00;24.50
3504;DHT22;1766;53.490;10.174;2022-08-04T11:50:07;42.20;24.80
3504;DHT22;1766;53.490;10.174;2022-08-04T11:52:13;42.40;24.50
3504;DHT22;1766;53.490;10.174;2022-08-04T11:54:18;42.70;24.10
3504;DHT22;1766;53.490;10.174;2022-08-04T11:56:21;42.90;24.20
3504;DHT22;1766;53.490;10.174;2022-08-04T11:58:23;43.10;23.80
3504;DHT22;1766;53.490;10.174;2022-08-04T12:00:27;43.20;23.50
3504;DHT22;1766;53.490;10.174;2022-08-04T12:05:07;43.40;23.50
3504;DHT22;1766;53.490;10.174;2022-08-04T12:07:16;43.70;22.90
3504;DHT22;1766;53.490;10.174;2022-08-04T12:09:28;43.80;22.00
3504;DHT22;1766;53.490;10.174;2022-08-04T12:11:41;43.70;21.50
3504;DHT22;1766;53.490;10.174;2022-08-04T12:14:07;43.50;21.40
3504;DHT22;1766;53.490;10.174;2022-08-04T12:16:16;43.60;21.00
3504;DHT22;1766;53.490;10.174;2022-08-04T12:18:25;44.20;21.00
3504;DHT22;1766;53.490;10.174;2022-08-04T12:20:36;45.10;20.40
3504;DHT22;1766;53.490;10.174;2022-08-04T12:22:45;45.60;19.90
3504;DHT22;1766;53.490;10.174;2022-08-04T12:24:53;45.40;19.70
3504;DHT22;1766;53.490;10.174;2022-08-04T12:27:06;45.00;19.70
3504;DHT22;1766;53.490;10.174;2022-08-04T12:29:13;44.50;19.80
3504;DHT22;1766;53.490;10.174;2022-08-04T12:31:19;44.10;20.00
3504;DHT22;1766;53.490;10.174;2022-08-04T12:33:33;43.90;20.20
3504;DHT22;1766;53.490;10.174;2022-08-04T12:35:41;44.10;20.10
3504;DHT22;1766;53.490;10.174;2022-08-04T12:37:57;44.50;20.10
3504;DHT22;1766;53.490;10.174;2022-08-04T12:40:10;45.20;19.90
3504;DHT22;1766;53.490;10.174;2022-08-04T12:42:21;45.90;19.80
3504;DHT22;1766;53.490;10.174;2022-08-04T12:44:30;46.70;19.40
3504;DHT22;1766;53.490;10.174;2022-08-04T12:46:35;47.30;18.80
3504;DHT22;1766;53.490;10.174;2022-08-04T12:48:45;47.80;18.60
3504;DHT22;1766;53.490;10.174;2022-08-04T12:50:48;48.10;18.20
3504;DHT22;1766;53.490;10.174;2022-08-04T12:52:54;48.40;17.90
3504;DHT22;1766;53.490;10.174;2022-08-04T12:54:58;48.40;17.60
3504;DHT22;1766;53.490;10.174;2022-08-04T12:57:02;48.40;17.40
3504;DHT22;1766;53.490;10.174;2022-08-04T12:59:06;48.40;17.40
3504;DHT22;1766;53.490;10.174;2022-08-04T13:01:11;48.50;17.30
3504;DHT22;1766;53.490;10.174;2022-08-04T13:03:15;48.70;17.20
3504;DHT22;1766;53.490;10.174;2022-08-04T13:05:20;49.00;17.10
3504;DHT22;1766;53.490;10.174;2022-08-04T13:07:24;49.00;17.20
3504;DHT22;1766;53.490;10.174;2022-08-04T13:09:30;48.50;17.30
3504;DHT22;1766;53.490;10.174;2022-08-04T13:11:36;48.10;17.60
3504;DHT22;1766;53.490;10.174;2022-08-04T13:13:42;47.70;17.80
3504;DHT22;1766;53.490;10.174;2022-08-04T13:15:54;47.30;17.90
3504;DHT22;1766;53.490;10.174;2022-08-04T13:18:00;46.70;17.90
3504;DHT22;1766;53.490;10.174;2022-08-04T13:20:04;46.50;18.20
3504;DHT22;1766;53.490;10.174;2022-08-04T13:22:08;46.20;18.30
3504;DHT22;1766;53.490;10.174;2022-08-04T13:24:12;46.00;18.40
3504;DHT22;1766;53.490;10.174;2022-08-04T13:26:16;46.20;18.50
3504;DHT22;1766;53.490;10.174;2022-08-04T13:28:21;46.30;18.60
3504;DHT22;1766;53.490;10.174;2022-08-04T13:30:26;46.50;18.40
3504;DHT22;1766;53.490;10.174;2022-08-04T13:32:29;46.80;18.30
3504;DHT22;1766;53.490;10.174;2022-08-04T13:34:32;46.90;18.30
3504;DHT22;1766;53.490;10.174;2022-08-04T13:36:36;47.30;18.40
3504;DHT22;1766;53.490;10.174;2022-08-04T13:38:46;47.80;18.80
3504;DHT22;1766;53.490;10.174;2022-08-04T13:40:50;48.20;18.00
3504;DHT22;1766;53.490;10.174;2022-08-04T13:42:53;48.30;17.80
3504;DHT22;1766;53.490;10.174;2022-08-04T13:44:58;48.30;17.50
3504;DHT22;1766;53.490;10.174;2022-08-04T13:47:04;48.10;17.40
3504;DHT22;1766;53.490;10.174;2022-08-04T13:49:09;48.20;17.40
3504;DHT22;1766;53.490;10.174;2022-08-04T13:51:17;48.40;17.50
3504;DHT22;1766;53.490;10.174;2022-08-04T13:53:21;48.30;17.30
3504;DHT22;1766;53.490;10.174;2022-08-04T13:55:27;48.00;17.30
3504;DHT22;1766;53.490;10.174;2022-08-04T13:57:31;47.80;17.60
3504;DHT22;1766;53.490;10.174;2022-08-04T13:59:36;47.90;17.60
3504;DHT22;1766;53.490;10.174;2022-08-04T14:01:42;48.30;17.60
3504;DHT22;1766;53.490;10.174;2022-08-04T14:03:58;48.80;17.50
3504;DHT22;1766;53.490;10.174;2022-08-04T14:06:08;49.30;17.20
3504;DHT22;1766;53.490;10.174;2022-08-04T14:08:18;49.80;17.00
3504;DHT22;1766;53.490;10.174;2022-08-04T14:10:21;50.10;16.80
3504;DHT22;1766;53.490;10.174;2022-08-04T14:12:25;50.60;16.70
3504;DHT22;1766;53.490;10.174;2022-08-04T14:14:29;50.90;16.40
3504;DHT22;1766;53.490;10.174;2022-08-04T14:16:32;51.20;16.40
3504;DHT22;1766;53.490;10.174;2022-08-04T14:18:34;51.40;16.00
3504;DHT22;1766;53.490;10.174;2022-08-04T14:20:36;51.60;15.80
3504;DHT22;1766;53.490;10.174;2022-08-04T14:22:38;51.60;15.70